Time;durP1;ratioP1;P1;durP2;ratioP2;P2;SDS_P1;SDS_P2;PMS_P1;PMS_P2;Temp;Humidity;BMP_temperature;BMP_pressure;BME280_temperature;BME280_humidity;BME280_pressure;Samples;Min_cycle;Max_cycle;Signal;HPM_P1;HPM_P2
2023/05/05 05:00:28;;;;;;;;;1.00;1.00;;;;;17.88;66.60;-19684.47;5838994;23;46603;-87
2023/05/05 05:02:53;;;;;;;;;1.00;1.00;;;;;18.00;67.27;-19689.66;4996896;28;45361;-87
2023/05/05 05:05:20;;;;;;;;;0.00;0.00;;;;;18.03;67.48;-19690.31;4996660;28;45459;-87
2023/05/05 05:07:45;;;;;;;;;1.00;1.00;;;;;17.87;67.66;-19686.19;4997152;28;46997;-87
2023/05/05 05:10:11;;;;;;;;;0.00;0.00;;;;;18.03;67.97;-19690.31;4996923;28;45799;-87
2023/05/05 05:12:36;;;;;;;;;0.33;0.33;;;;;18.02;68.37;-19690.19;4997233;28;45708;-87
2023/05/05 05:15:02;;;;;;;;;3.00;1.00;;;;;18.02;67.84;-19690.19;4997831;28;45437;-87
2023/05/05 05:17:29;;;;;;;;;0.00;0.00;;;;;17.91;68.37;-19687.25;4996174;28;46688;-87
2023/05/05 05:22:30;;;;;;;;;1.67;1.00;;;;;17.72;68.51;-19682.44;5039191;22;45879;-89
2023/05/05 05:24:55;;;;;;;;;1.00;1.00;;;;;18.01;68.83;-19689.94;5016316;28;45816;-89
2023/05/05 05:27:20;;;;;;;;;0.67;0.67;;;;;17.97;69.05;-19688.72;5015910;28;55678;-88
2023/05/05 05:29:46;;;;;;;;;0.00;0.00;;;;;18.00;69.01;-19689.53;5015792;28;47810;-88
2023/05/05 05:32:11;;;;;;;;;0.33;0.33;;;;;17.87;69.11;-19686.19;5016254;28;45418;-86
2023/05/05 05:34:36;;;;;;;;;2.00;1.00;;;;;17.98;69.31;-19689.13;5016780;28;45410;-88
2023/05/05 05:37:02;;;;;;;;;0.00;0.00;;;;;17.97;69.49;-19688.84;5016080;28;46946;-88
2023/05/05 05:39:36;;;;;;;;;0.00;0.00;;;;;17.99;69.81;-19689.25;5015835;28;45682;-87
2023/05/05 05:42:02;;;;;;;;;0.00;0.00;;;;;17.97;69.99;-19688.72;5016259;28;45486;-87
2023/05/05 05:44:27;;;;;;;;;1.00;1.00;;;;;17.88;70.28;-19686.56;5016521;28;45546;-88
2023/05/05 05:46:53;;;;;;;;;0.00;0.00;;;;;17.71;70.79;-19682.16;5014434;28;46120;-88
2023/05/05 05:49:18;;;;;;;;;0.00;0.00;;;;;17.81;71.10;-19684.72;5004302;28;54448;-90
2023/05/05 05:51:43;;;;;;;;;0.00;0.00;;;;;17.96;71.37;-19688.44;5017667;28;45349;-89
2023/05/05 05:54:09;;;;;;;;;1.00;1.00;;;;;17.84;71.41;-19685.50;5017101;28;45527;-90
2023/05/05 05:56:34;;;;;;;;;1.00;1.00;;;;;17.97;71.32;-19688.72;5016829;28;45870;-90
2023/05/05 05:59:00;;;;;;;;;1.00;1.00;;;;;17.96;70.77;-19688.44;5016388;28;45433;-89
2023/05/05 06:01:26;;;;;;;;;3.00;3.00;;;;;17.97;71.43;-19688.72;5016548;28;45726;-89
2023/05/05 06:03:52;;;;;;;;;3.00;1.00;;;;;17.82;71.75;-19684.97;5016005;28;45601;-90
2023/05/05 06:06:17;;;;;;;;;2.33;1.00;;;;;17.58;71.54;-19678.53;4978070;28;47421;-90
2023/05/05 06:08:43;;;;;;;;;0.67;0.67;;;;;17.84;71.43;-19685.50;4995828;28;45470;-90
2023/05/05 06:11:08;;;;;;;;;1.00;1.00;;;;;17.89;71.47;-19686.84;4995946;28;45439;-90
2023/05/05 06:13:33;;;;;;;;;0.67;0.67;;;;;17.79;71.89;-19684.03;4996106;28;45579;-90
2023/05/05 06:15:59;;;;;;;;;1.33;0.00;;;;;17.92;71.81;-19687.66;4995919;28;46110;-90
2023/05/05 06:18:24;;;;;;;;;2.00;0.00;;;;;17.96;72.11;-19688.59;4995756;28;45404;-89
2023/05/05 06:20:51;;;;;;;;;1.33;0.00;;;;;18.01;71.58;-19689.94;4995746;28;53958;-89
2023/05/05 06:23:16;;;;;;;;;1.33;0.67;;;;;18.01;71.44;-19689.78;4996042;28;45380;-88
2023/05/05 06:25:42;;;;;;;;;1.00;1.00;;;;;18.01;72.07;-19689.78;4995483;28;46142;-89
2023/05/05 06:28:07;;;;;;;;;0.33;0.00;;;;;17.93;71.57;-19687.78;4995799;28;45486;-89
2023/05/05 06:30:33;;;;;;;;;1.00;1.00;;;;;18.00;71.86;-19689.66;4995921;28;45686;-89
2023/05/05 06:32:58;;;;;;;;;0.33;0.00;;;;;18.01;72.12;-19689.94;4996111;28;45448;-88
2023/05/05 06:35:23;;;;;;;;;0.00;0.00;;;;;18.03;71.83;-19690.31;4995494;28;46154;-88
2023/05/05 06:37:49;;;;;;;;;1.00;1.00;;;;;18.03;72.42;-19690.47;4996365;28;45436;-90
2023/05/05 06:40:14;;;;;;;;;2.00;0.00;;;;;17.88;72.49;-19686.56;5016582;28;45793;-89
2023/05/05 06:42:40;;;;;;;;;0.00;0.00;;;;;18.06;72.22;-19691.13;5019103;28;45476;-89
2023/05/05 06:45:06;;;;;;;;;1.00;1.00;;;;;18.05;72.58;-19690.84;5018544;28;46000;-89
2023/05/05 06:47:31;;;;;;;;;0.00;0.00;;;;;18.08;72.41;-19691.66;5018491;28;45717;-88
2023/05/05 06:49:57;;;;;;;;;1.00;0.00;;;;;18.07;72.24;-19691.53;5018660;28;45434;-89
2023/05/05 06:52:22;;;;;;;;;0.00;0.00;;;;;18.03;73.30;-19690.47;5018678;28;45553;-89
2023/05/05 06:54:47;;;;;;;;;0.00;0.00;;;;;17.86;72.60;-19686.03;5017823;28;45827;-89
2023/05/05 06:57:13;;;;;;;;;1.33;1.00;;;;;17.97;72.23;-19688.84;5018484;28;45341;-90
2023/05/05 06:59:38;;;;;;;;;1.00;1.00;;;;;18.04;72.37;-19690.72;5018556;28;45454;-89
2023/05/05 07:02:09;;;;;;;;;1.00;1.00;;;;;17.90;72.64;-19687.13;5018689;28;45446;-90
2023/05/05 07:04:35;;;;;;;;;2.00;1.00;;;;;18.02;73.58;-19690.19;5018106;28;47272;-90
2023/05/05 07:07:00;;;;;;;;;0.00;0.00;;;;;18.02;73.44;-19690.06;5017953;28;45588;-89
2023/05/05 07:09:26;;;;;;;;;0.33;0.33;;;;;17.99;72.50;-19689.38;5017716;28;61387;-89
2023/05/05 07:11:51;;;;;;;;;0.00;0.00;;;;;17.85;72.62;-19685.78;5017761;28;45526;-89
2023/05/05 07:14:16;;;;;;;;;0.00;0.00;;;;;17.95;72.85;-19688.19;5018551;28;46261;-89
2023/05/05 07:16:42;;;;;;;;;0.00;0.00;;;;;17.77;72.57;-19683.63;5018370;28;45466;-88
2023/05/05 07:19:07;;;;;;;;;0.00;0.00;;;;;17.87;72.64;-19686.31;5018520;28;45393;-88
2023/05/05 07:21:33;;;;;;;;;4.00;1.00;;;;;17.91;73.28;-19687.38;5018287;28;45385;-88
2023/05/05 07:23:58;;;;;;;;;2.67;0.00;;;;;17.96;73.03;-19688.44;5017970;28;46622;-87
2023/05/05 07:26:24;;;;;;;;;0.00;0.00;;;;;17.91;72.93;-19687.38;5018142;28;45308;-88
2023/05/05 07:28:54;;;;;;;;;1.67;0.00;;;;;17.98;72.83;-19688.97;4999772;28;45657;-88
2023/05/05 07:31:20;;;;;;;;;1.00;1.00;;;;;17.84;72.86;-19685.38;4998481;28;45417;-87
2023/05/05 07:33:46;;;;;;;;;2.00;0.00;;;;;17.96;72.96;-19688.44;4997485;28;46020;-88
2023/05/05 07:36:11;;;;;;;;;2.00;2.00;;;;;17.81;72.88;-19684.72;5016444;28;45526;-88
2023/05/05 07:38:37;;;;;;;;;0.33;0.33;;;;;17.95;72.74;-19688.19;5016716;28;45482;-89
2023/05/05 07:41:02;;;;;;;;;1.00;0.33;;;;;18.08;72.65;-19691.66;5017715;28;45567;-88
2023/05/05 07:43:27;;;;;;;;;1.00;1.00;;;;;18.08;73.07;-19691.66;5017632;28;45786;-89
2023/05/05 07:45:53;;;;;;;;;0.33;0.33;;;;;18.10;72.87;-19692.19;5016561;28;45419;-88
2023/05/05 07:48:18;;;;;;;;;0.33;0.33;;;;;18.16;72.87;-19693.66;4997671;28;45340;-88
2023/05/05 07:50:43;;;;;;;;;0.67;0.67;;;;;18.17;72.96;-19694.06;5017931;28;45478;-88
2023/05/05 07:53:09;;;;;;;;;1.00;0.00;;;;;18.08;73.79;-19691.78;5016309;28;46089;-87
2023/05/05 07:55:34;;;;;;;;;1.67;1.00;;;;;17.89;72.99;-19686.84;5017296;28;45501;-87
2023/05/05 07:58:00;;;;;;;;;0.67;0.67;;;;;18.25;72.91;-19696.22;5017448;28;45526;-88
2023/05/05 08:00:25;;;;;;;;;0.00;0.00;;;;;18.20;73.49;-19694.88;5017494;28;45376;-86
2023/05/05 08:02:50;;;;;;;;;0.33;0.33;;;;;18.31;72.76;-19697.69;5015867;28;46089;-87
2023/05/05 08:05:16;;;;;;;;;1.00;1.00;;;;;18.35;73.28;-19698.75;5017015;28;54179;-87
2023/05/05 08:07:41;;;;;;;;;0.00;0.00;;;;;18.38;73.01;-19699.41;5015920;28;45717;-87
2023/05/05 08:10:09;;;;;;;;;0.00;0.00;;;;;18.41;72.88;-19700.34;5017584;28;45429;-86
2023/05/05 08:12:35;;;;;;;;;0.00;0.00;;;;;18.29;72.58;-19697.28;5017304;28;47314;-86
2023/05/05 08:15:00;;;;;;;;;0.33;0.33;;;;;18.16;71.82;-19693.81;5017277;28;45479;-88
2023/05/05 08:17:26;;;;;;;;;0.00;0.00;;;;;18.41;72.08;-19700.22;5016923;28;45476;-87
2023/05/05 08:19:52;;;;;;;;;0.00;0.00;;;;;18.45;72.21;-19701.41;5017219;28;45683;-87
2023/05/05 08:22:17;;;;;;;;;0.00;0.00;;;;;18.44;71.97;-19701.16;5017084;28;46901;-87
2023/05/05 08:24:42;;;;;;;;;0.00;0.00;;;;;18.40;71.51;-19699.94;5016988;28;45304;-87
2023/05/05 08:27:07;;;;;;;;;0.67;0.33;;;;;18.55;71.18;-19703.97;5017071;28;45377;-87
2023/05/05 08:29:33;;;;;;;;;2.00;0.00;;;;;18.54;70.76;-19703.69;5017287;28;45340;-87
2023/05/05 08:31:58;;;;;;;;;0.67;0.00;;;;;18.64;70.11;-19706.22;5016561;28;46073;-87
2023/05/05 08:34:24;;;;;;;;;0.00;0.00;;;;;18.75;68.68;-19709.16;5016551;28;51542;-85
2023/05/05 08:36:49;;;;;;;;;0.33;0.33;;;;;18.66;68.63;-19706.91;5017269;28;45399;-88
2023/05/05 08:39:15;;;;;;;;;0.00;0.00;;;;;18.72;68.80;-19708.50;5017297;28;45368;-87
2023/05/05 08:41:41;;;;;;;;;1.33;0.00;;;;;18.74;68.93;-19709.03;5016752;28;45711;-85
2023/05/05 08:44:07;;;;;;;;;0.33;0.33;;;;;18.96;68.65;-19714.78;5016869;28;45420;-87
2023/05/05 08:46:35;;;;;;;;;0.00;0.00;;;;;19.11;68.59;-19718.53;5016571;28;45512;-88
2023/05/05 08:49:02;;;;;;;;;0.33;0.33;;;;;19.23;68.02;-19721.59;5017158;28;45493;-87
2023/05/05 08:51:31;;;;;;;;;0.00;0.00;;;;;19.58;68.06;-19730.81;5017226;28;46385;-87
2023/05/05 08:54:01;;;;;;;;;0.00;0.00;;;;;19.84;65.69;-19737.59;5016971;28;45474;-88
2023/05/05 08:56:33;;;;;;;;;0.00;0.00;;;;;20.23;64.94;-19747.75;5017531;28;45664;-87
2023/05/05 08:59:00;;;;;;;;;0.00;0.00;;;;;20.28;64.30;-19749.09;5017443;28;45525;-87
2023/05/05 09:01:26;;;;;;;;;0.00;0.00;;;;;20.32;62.74;-19750.16;5016576;28;46371;-87
2023/05/05 09:03:52;;;;;;;;;0.00;0.00;;;;;20.41;62.89;-19752.41;5016544;28;45633;-87
2023/05/05 09:06:20;;;;;;;;;0.00;0.00;;;;;20.52;63.17;-19755.22;5017719;28;45430;-84
2023/05/05 09:08:46;;;;;;;;;0.00;0.00;;;;;20.49;62.26;-19754.53;5017344;28;45518;-84
2023/05/05 09:11:11;;;;;;;;;0.00;0.00;;;;;20.42;61.74;-19752.81;5016582;28;46885;-87
2023/05/05 09:13:36;;;;;;;;;0.00;0.00;;;;;20.54;60.82;-19755.75;5016829;28;45446;-86
2023/05/05 09:16:02;;;;;;;;;0.00;0.00;;;;;20.81;61.35;-19762.94;5017040;28;45431;-85
2023/05/05 09:18:27;;;;;;;;;0.00;0.00;;;;;21.40;60.12;-19778.13;5016950;28;45437;-86
2023/05/05 09:20:53;;;;;;;;;0.00;0.00;;;;;22.06;57.82;-19795.44;5016602;28;46112;-87
2023/05/05 09:23:19;;;;;;;;;0.00;0.00;;;;;22.88;56.61;-19816.56;5016824;28;45471;-88
2023/05/05 09:25:47;;;;;;;;;0.00;0.00;;;;;23.76;54.83;-19161.75;5016949;28;45478;-87
2023/05/05 09:28:15;;;;;;;;;0.00;0.00;;;;;24.52;53.13;-17827.00;5016599;28;45411;-84
2023/05/05 09:30:45;;;;;;;;;0.00;0.00;;;;;25.32;51.56;-17167.28;5016111;28;45881;-85
2023/05/05 09:33:11;;;;;;;;;1.00;0.00;;;;;25.74;51.22;-14462.03;5016223;28;45459;-85
2023/05/05 09:35:52;;;;;;;;;2.00;0.00;;;;;26.11;50.69;-12090.44;5016333;28;45910;-85
2023/05/05 09:38:18;;;;;;;;;0.00;0.00;;;;;26.66;49.00;-10737.22;5016392;28;45434;-85
2023/05/05 09:40:48;;;;;;;;;0.00;0.00;;;;;27.38;48.29;-8360.28;5015849;28;46588;-86
2023/05/05 09:43:16;;;;;;;;;0.00;0.00;;;;;27.96;46.61;-1193.97;5016002;28;45397;-86
2023/05/05 09:45:42;;;;;;;;;0.00;0.00;;;;;28.10;44.84;13191.13;5015824;28;45728;-86
2023/05/05 09:48:07;;;;;;;;;0.00;0.00;;;;;27.97;45.70;16620.00;5016477;28;45392;-88
2023/05/05 09:50:42;;;;;;;;;0.00;0.00;;;;;27.96;46.58;15589.56;5015702;28;45524;-87
2023/05/05 09:53:09;;;;;;;;;0.00;0.00;;;;;27.82;44.91;20494.81;5015902;28;45415;-87
2023/05/05 09:55:35;;;;;;;;;0.25;0.00;;;;;27.41;44.80;27745.63;5015878;28;45474;-87
2023/05/05 09:58:20;;;;;;;;;0.00;0.00;;;;;27.02;44.49;38278.22;4998618;28;45423;-87
2023/05/05 10:00:46;;;;;;;;;0.00;0.00;;;;;27.06;44.98;36266.69;5015531;28;46280;-87
2023/05/05 10:03:11;;;;;;;;;0.00;0.00;;;;;27.26;44.72;36734.78;5015982;28;45469;-86
2023/05/05 10:05:54;;;;;;;;;0.00;0.00;;;;;27.86;43.93;40176.81;5016449;28;45360;-87
2023/05/05 10:08:22;;;;;;;;;0.00;0.00;;;;;28.60;43.27;44812.28;5016457;28;45472;-86
2023/05/05 10:11:05;;;;;;;;;0.00;0.00;;;;;29.33;42.71;44827.88;5016355;28;46278;-87
2023/05/05 10:13:35;;;;;;;;;0.00;0.00;;;;;30.10;40.89;51300.91;5015741;28;45462;-86
2023/05/05 10:16:02;;;;;;;;;0.00;0.00;;;;;30.44;38.58;69398.63;5017552;28;45645;-86
2023/05/05 10:18:30;;;;;;;;;1.00;0.00;;;;;30.71;38.02;73872.28;5020609;28;45471;-86
2023/05/05 10:21:02;;;;;;;;;0.00;0.00;;;;;31.09;38.24;75113.75;5019807;28;47014;-85
2023/05/05 10:23:37;;;;;;;;;1.00;0.00;;;;;31.43;34.80;76769.34;5020805;28;45436;-87
2023/05/05 10:26:05;;;;;;;;;0.00;0.00;;;;;31.37;34.70;79417.84;5019924;28;45436;-87
2023/05/05 10:28:47;;;;;;;;;0.00;0.00;;;;;30.93;33.82;78013.53;5019738;28;45666;-85
2023/05/05 10:31:19;;;;;;;;;1.00;0.00;;;;;30.68;35.17;78627.44;5017202;28;46528;-89
2023/05/05 10:34:04;;;;;;;;;0.00;0.00;;;;;30.56;34.89;78145.63;5010156;28;45520;-86
2023/05/05 10:36:30;;;;;;;;;0.00;0.00;;;;;30.14;35.86;78274.94;5019051;28;45555;-87
2023/05/05 10:38:57;;;;;;;;;0.00;0.00;;;;;29.64;36.18;77440.00;5018860;28;45548;-85
2023/05/05 10:41:23;;;;;;;;;0.00;0.00;;;;;29.08;37.29;76955.41;5018345;28;45801;-85
2023/05/05 10:43:50;;;;;;;;;0.00;0.00;;;;;28.59;37.58;76614.34;5018376;28;45450;-85
2023/05/05 10:46:16;;;;;;;;;0.00;0.00;;;;;27.99;38.70;76157.22;5018297;28;45482;-85
2023/05/05 10:48:50;;;;;;;;;1.00;0.50;;;;;27.55;39.59;75687.00;5000677;28;45540;-86
2023/05/05 10:51:53;;;;;;;;;0.00;0.00;;;;;27.11;40.06;75050.19;5018271;28;46026;-85
2023/05/05 10:54:35;;;;;;;;;0.00;0.00;;;;;27.10;40.67;74849.78;5017943;28;45896;-91
2023/05/05 10:57:03;;;;;;;;;0.00;0.00;;;;;27.29;40.27;75167.19;5018227;28;45424;-85
2023/05/05 10:59:38;;;;;;;;;0.00;0.00;;;;;27.75;40.04;75399.84;5018689;28;45798;-94
2023/05/05 11:02:18;;;;;;;;;0.00;0.00;;;;;27.88;39.75;75685.50;5017927;28;47094;-84
2023/05/05 11:05:01;;;;;;;;;0.00;0.00;;;;;27.73;39.26;75636.16;5018237;28;45407;-86
2023/05/05 11:07:27;;;;;;;;;0.00;0.00;;;;;27.96;39.13;75352.75;5017979;28;45454;-85
2023/05/05 11:10:00;;;;;;;;;0.00;0.00;;;;;27.60;39.82;75277.13;5018236;28;45395;-85
2023/05/05 11:12:26;;;;;;;;;0.00;0.00;;;;;27.15;39.51;74794.28;5017322;28;45959;-86
2023/05/05 11:15:22;;;;;;;;;0.00;0.00;;;;;26.80;39.60;74393.59;5018002;28;45479;-86
2023/05/05 11:17:48;;;;;;;;;0.00;0.00;;;;;26.53;40.18;74330.63;5009463;28;45493;-84
2023/05/05 11:20:13;;;;;;;;;0.00;0.00;;;;;26.45;40.10;74228.75;5011550;28;45758;-85
2023/05/05 11:23:01;;;;;;;;;0.00;0.00;;;;;26.53;40.93;74276.94;5017051;28;46118;-83
2023/05/05 11:25:35;;;;;;;;;0.00;0.00;;;;;26.66;40.69;74240.59;5016892;28;45546;-86
2023/05/05 11:28:07;;;;;;;;;1.00;0.00;;;;;26.76;40.56;74380.34;5016637;28;45392;-88
2023/05/05 11:30:33;;;;;;;;;0.00;0.00;;;;;26.83;40.61;74504.03;5017471;28;45725;-85
2023/05/05 11:33:29;;;;;;;;;0.00;0.00;;;;;26.90;39.56;74197.72;5001606;28;47538;-88
2023/05/05 11:35:59;;;;;;;;;0.00;0.00;;;;;26.61;40.10;74389.09;5017192;28;45419;-84
2023/05/05 11:38:37;;;;;;;;;0.00;0.00;;;;;26.78;40.12;74285.72;4999506;28;45638;-84
2023/05/05 11:41:13;;;;;;;;;0.00;0.00;;;;;26.95;40.37;74647.06;5001323;28;45491;-85
2023/05/05 11:43:40;;;;;;;;;1.00;0.00;;;;;27.34;39.70;74752.69;5017187;28;46175;-85
2023/05/05 11:46:18;;;;;;;;;0.00;0.00;;;;;27.49;38.41;74476.81;5016809;28;45491;-88
2023/05/05 11:48:45;;;;;;;;;0.00;0.00;;;;;27.56;39.81;74995.09;5015451;28;45452;-85
2023/05/05 11:51:14;;;;;;;;;0.75;0.00;;;;;27.83;39.45;75191.09;5002200;28;45570;-84
2023/05/05 11:53:44;;;;;;;;;0.00;0.00;;;;;27.98;39.34;75117.81;5016753;28;45515;-84
2023/05/05 11:56:11;;;;;;;;;0.00;0.00;;;;;27.91;38.69;75035.31;5016675;28;45411;-85
2023/05/05 11:58:37;;;;;;;;;0.75;0.00;;;;;27.83;38.96;74974.00;5016921;28;45899;-84
2023/05/05 12:01:06;;;;;;;;;1.00;0.00;;;;;27.59;38.84;74712.63;5018840;28;45524;-92
2023/05/05 12:03:36;;;;;;;;;0.00;0.00;;;;;27.25;38.75;74447.53;5019771;28;45451;-88
2023/05/05 12:06:03;;;;;;;;;0.50;0.00;;;;;26.99;39.34;74316.56;5018311;28;45466;-84
2023/05/05 12:08:34;;;;;;;;;0.50;0.00;;;;;26.61;39.07;74131.03;5017384;28;45502;-84
2023/05/05 12:11:04;;;;;;;;;0.00;0.00;;;;;26.48;39.15;73857.19;5017130;28;45550;-85
2023/05/05 12:13:29;;;;;;;;;0.00;0.00;;;;;26.15;39.55;73751.63;5016800;28;45644;-86
2023/05/05 12:15:54;;;;;;;;;1.00;0.00;;;;;26.07;39.48;73715.03;5016893;28;45577;-89
2023/05/05 12:18:20;;;;;;;;;0.00;0.00;;;;;25.98;40.12;73719.31;5016779;28;45443;-84
2023/05/05 12:20:46;;;;;;;;;0.00;0.00;;;;;26.13;40.23;73748.47;5017111;28;45464;-84
2023/05/05 12:23:13;;;;;;;;;1.75;0.00;;;;;26.21;39.68;73691.34;5017453;28;45806;-88
2023/05/05 12:25:39;;;;;;;;;0.00;0.00;;;;;26.38;39.49;73869.00;5016347;28;45542;-86
2023/05/05 12:28:08;;;;;;;;;0.00;0.00;;;;;26.62;39.52;74013.44;4998875;28;45404;-84
2023/05/05 12:30:34;;;;;;;;;0.00;0.00;;;;;26.78;38.70;73959.06;5016732;28;45431;-86
2023/05/05 12:33:04;;;;;;;;;0.00;0.00;;;;;26.78;39.09;74108.50;5016499;28;45395;-85
2023/05/05 12:35:30;;;;;;;;;0.00;0.00;;;;;26.77;37.89;73694.31;5016808;28;45475;-84
2023/05/05 12:37:57;;;;;;;;;0.00;0.00;;;;;26.51;38.04;73693.28;5017271;28;45458;-84
2023/05/05 12:40:45;;;;;;;;;0.00;0.00;;;;;26.35;38.58;73526.50;5015789;28;45597;-84
2023/05/05 12:43:27;;;;;;;;;1.00;0.00;;;;;26.24;39.05;73623.94;5016334;28;47244;-83
2023/05/05 12:46:00;;;;;;;;;0.00;0.00;;;;;26.15;39.32;73571.88;5016364;28;45850;-85
2023/05/05 12:48:25;;;;;;;;;2.50;0.00;;;;;26.13;39.28;73589.00;5016006;28;45425;-84
2023/05/05 12:50:51;;;;;;;;;0.00;0.00;;;;;26.02;39.81;73642.97;5016651;28;45845;-84
2023/05/05 12:53:23;;;;;;;;;0.00;0.00;;;;;26.11;38.86;73489.44;5016236;28;46264;-87
2023/05/05 12:55:50;;;;;;;;;0.00;0.00;;;;;26.10;39.31;73512.56;5016357;28;45482;-91
2023/05/05 12:58:15;;;;;;;;;0.00;0.00;;;;;26.09;38.81;73315.34;5016805;28;45425;-86
2023/05/05 13:00:41;;;;;;;;;0.00;0.00;;;;;26.07;39.21;73443.69;5016549;28;45545;-85
2023/05/05 13:03:17;;;;;;;;;0.00;0.00;;;;;26.01;39.19;73414.47;5016267;28;45531;-86
2023/05/05 13:05:43;;;;;;;;;0.00;0.00;;;;;25.94;38.80;73291.09;5016006;28;45443;-82
2023/05/05 13:08:08;;;;;;;;;0.00;0.00;;;;;25.93;39.14;73287.13;5016031;28;45611;-83
2023/05/05 13:10:33;;;;;;;;;0.00;0.00;;;;;25.75;39.51;73290.16;5015618;28;52461;-84
2023/05/05 13:12:59;;;;;;;;;0.00;0.00;;;;;25.82;39.48;73239.28;5016180;28;47649;-87
2023/05/05 13:15:25;;;;;;;;;0.00;0.00;;;;;25.70;39.58;73370.66;5015953;28;45811;-84
2023/05/05 13:17:57;;;;;;;;;0.00;0.00;;;;;25.78;39.46;73331.25;5016242;28;45451;-85
2023/05/05 13:20:23;;;;;;;;;0.00;0.00;;;;;25.52;39.46;73294.47;5015842;28;45465;-89
2023/05/05 13:22:48;;;;;;;;;0.00;0.00;;;;;25.71;39.89;73182.13;5016191;28;45541;-88
2023/05/05 13:25:13;;;;;;;;;0.00;0.00;;;;;25.65;39.31;73117.66;5016101;28;45445;-85
2023/05/05 13:27:39;;;;;;;;;0.00;0.00;;;;;25.54;39.83;73101.78;5016194;28;45348;-88
2023/05/05 13:30:05;;;;;;;;;0.00;0.00;;;;;25.46;40.29;73141.19;5016183;28;45320;-88
2023/05/05 13:32:30;;;;;;;;;0.00;0.00;;;;;25.27;40.25;73006.91;5015670;28;46187;-91
2023/05/05 13:34:56;;;;;;;;;0.00;0.00;;;;;25.30;40.19;72955.22;5015589;28;45490;-84
2023/05/05 13:37:22;;;;;;;;;0.00;0.00;;;;;25.17;40.41;72915.81;5015602;28;45428;-85
2023/05/05 13:39:47;;;;;;;;;0.00;0.00;;;;;25.17;40.35;72932.09;5016498;28;45345;-84
2023/05/05 13:42:12;;;;;;;;;0.00;0.00;;;;;25.09;40.91;72945.84;5015549;28;45990;-85
2023/05/05 13:44:38;;;;;;;;;0.00;0.00;;;;;25.05;41.06;72881.84;5015765;28;45503;-87
2023/05/05 13:47:04;;;;;;;;;0.00;0.00;;;;;25.08;41.10;72906.66;5014375;28;45434;-88
2023/05/05 13:49:29;;;;;;;;;0.00;0.00;;;;;25.06;41.08;72856.03;5011731;28;45686;-85
2023/05/05 13:51:55;;;;;;;;;0.00;0.00;;;;;24.89;40.87;72826.66;5014867;28;47005;-86
2023/05/05 13:54:20;;;;;;;;;0.00;0.00;;;;;25.03;40.80;72720.19;5018022;28;45474;-83
2023/05/05 13:56:46;;;;;;;;;0.00;0.00;;;;;24.81;40.91;72739.41;5018013;28;45830;-84
2023/05/05 13:59:11;;;;;;;;;0.00;0.00;;;;;24.71;40.82;72699.88;5018659;28;45791;-84
2023/05/05 14:01:37;;;;;;;;;0.00;0.00;;;;;24.84;41.48;72775.66;5017939;28;45960;-84
2023/05/05 14:04:02;;;;;;;;;0.00;0.00;;;;;24.82;41.15;72664.88;5019164;28;45603;-91
2023/05/05 14:06:27;;;;;;;;;0.00;0.00;;;;;24.57;41.04;72544.41;5019190;28;45382;-86
2023/05/05 14:08:53;;;;;;;;;0.00;0.00;;;;;24.69;40.89;72632.44;5020059;28;45484;-84
2023/05/05 14:11:19;;;;;;;;;0.00;0.00;;;;;24.50;41.40;72617.50;5020370;28;46014;-88
2023/05/05 14:13:45;;;;;;;;;0.00;0.00;;;;;24.63;41.75;72524.81;5020765;28;45490;-90
2023/05/05 14:16:11;;;;;;;;;0.00;0.00;;;;;24.63;41.93;72619.53;5020668;28;45825;-86
2023/05/05 14:18:36;;;;;;;;;0.00;0.00;;;;;24.32;41.91;72501.00;5004425;28;45583;-87
2023/05/05 14:21:01;;;;;;;;;0.00;0.00;;;;;24.59;41.85;72544.81;5000722;28;50000;-85
2023/05/05 14:23:27;;;;;;;;;0.00;0.00;;;;;24.55;41.76;72531.72;4998971;28;45394;-87
2023/05/05 14:25:52;;;;;;;;;0.00;0.00;;;;;24.50;42.19;72451.81;4998906;28;45463;-87
2023/05/05 14:28:18;;;;;;;;;0.00;0.00;;;;;24.51;42.36;72364.38;5000869;28;45521;-90
2023/05/05 14:30:43;;;;;;;;;0.00;0.00;;;;;24.44;42.19;72410.41;4999422;28;45832;-84
2023/05/05 14:33:09;;;;;;;;;0.00;0.00;;;;;24.41;42.51;72374.22;4982315;28;50851;-86
2023/05/05 14:35:34;;;;;;;;;0.00;0.00;;;;;24.36;42.66;72280.81;4999502;28;45436;-84
2023/05/05 14:37:59;;;;;;;;;0.00;0.00;;;;;24.18;42.53;72232.69;4999174;28;45449;-85
2023/05/05 14:40:25;;;;;;;;;0.00;0.00;;;;;24.24;42.69;72169.22;4998774;28;46589;-83
2023/05/05 14:42:50;;;;;;;;;0.00;0.00;;;;;23.99;42.63;72117.25;5008351;28;45506;-88
2023/05/05 14:45:16;;;;;;;;;0.00;0.00;;;;;23.89;42.70;72031.88;5019164;28;45426;-87
2023/05/05 14:47:42;;;;;;;;;0.00;0.00;;;;;23.91;43.72;71829.56;5012772;28;45558;-85
2023/05/05 14:50:08;;;;;;;;;0.00;0.00;;;;;23.80;43.88;71681.47;5012381;28;45449;-82
2023/05/05 14:52:35;;;;;;;;;0.00;0.00;;;;;23.81;44.89;71457.78;5004638;28;45514;-81
2023/05/05 14:55:01;;;;;;;;;0.00;0.00;;;;;23.82;44.61;71147.66;5017923;28;45576;-83
2023/05/05 14:57:26;;;;;;;;;0.00;0.00;;;;;23.75;44.84;71107.91;5017956;28;45521;-80
2023/05/05 14:59:52;;;;;;;;;0.00;0.00;;;;;23.77;44.58;71009.78;5017467;28;47112;-80
2023/05/05 15:02:17;;;;;;;;;0.00;0.00;;;;;23.60;44.63;70944.31;5013094;28;45545;-81
2023/05/05 15:04:43;;;;;;;;;0.00;0.00;;;;;23.74;44.66;70936.50;5012121;28;45363;-82
2023/05/05 15:07:08;;;;;;;;;0.00;0.00;;;;;23.67;45.05;70871.22;5013949;28;45520;-82
2023/05/05 15:09:34;;;;;;;;;0.00;0.00;;;;;23.56;44.59;70820.00;5015721;28;46139;-82
2023/05/05 15:11:59;;;;;;;;;0.00;0.00;;;;;23.63;44.41;70782.00;5013824;28;45450;-84
2023/05/05 15:14:25;;;;;;;;;0.00;0.00;;;;;23.59;44.72;70788.53;5016533;28;55572;-85
2023/05/05 15:16:50;;;;;;;;;0.00;0.00;;;;;23.57;44.95;70786.09;5014516;28;45878;-82
2023/05/05 15:19:15;;;;;;;;;0.00;0.00;;;;;23.49;45.25;70798.00;5007778;28;46622;-81
2023/05/05 15:21:41;;;;;;;;;0.00;0.00;;;;;23.67;45.31;70808.44;5032127;28;45560;-82
2023/05/05 15:24:06;;;;;;;;;0.00;0.00;;;;;23.75;45.16;70648.63;5009462;28;50417;-83
2023/05/05 15:26:32;;;;;;;;;0.00;0.00;;;;;23.79;45.60;70458.97;5014074;28;45923;-82
2023/05/05 15:29:05;;;;;;;;;0.00;0.00;;;;;23.78;45.00;70403.72;5015650;28;50291;-82
2023/05/05 15:31:30;;;;;;;;;0.00;0.00;;;;;23.83;43.91;70649.63;5017067;28;45404;-81
2023/05/05 15:33:55;;;;;;;;;0.00;0.00;;;;;23.82;43.66;70720.75;5014841;28;52310;-82
2023/05/05 15:36:23;;;;;;;;;0.00;0.00;;;;;23.75;43.77;70753.38;5015694;28;45442;-82
2023/05/05 15:38:48;;;;;;;;;0.00;0.00;;;;;23.72;43.39;70714.59;5011965;28;46362;-81
2023/05/05 15:41:13;;;;;;;;;0.00;0.00;;;;;23.53;42.73;70819.66;4997227;28;48898;-80
2023/05/05 15:43:39;;;;;;;;;0.00;0.00;;;;;23.43;42.41;70979.69;4997718;28;45348;-80
2023/05/05 15:46:04;;;;;;;;;0.50;0.00;;;;;23.50;43.00;70929.44;4997405;28;45573;-81
2023/05/05 15:48:30;;;;;;;;;0.00;0.00;;;;;23.46;42.78;70918.53;4998611;28;46297;-82
2023/05/05 15:50:55;;;;;;;;;0.00;0.00;;;;;23.20;43.37;70882.69;5017233;28;45423;-82
2023/05/05 15:53:20;;;;;;;;;0.00;0.00;;;;;23.23;43.75;70829.06;5017509;28;45468;-82
2023/05/05 15:55:46;;;;;;;;;0.00;0.00;;;;;23.00;43.78;70742.94;5017785;28;45992;-81
2023/05/05 15:58:11;;;;;;;;;0.00;0.00;;;;;23.29;44.04;70739.16;5017066;28;46427;-80
2023/05/05 16:00:37;;;;;;;;;0.00;0.00;;;;;23.10;43.88;70741.59;5015096;28;45571;-80
2023/05/05 16:03:03;;;;;;;;;0.00;0.00;;;;;23.11;44.04;70669.34;5016737;28;45775;-81
2023/05/05 16:05:28;;;;;;;;;0.00;0.00;;;;;23.10;44.37;70647.13;5017249;28;45565;-80
2023/05/05 16:07:53;;;;;;;;;0.00;0.00;;;;;23.16;44.52;70632.22;5016940;28;45930;-80
2023/05/05 16:10:19;;;;;;;;;1.00;0.00;;;;;23.04;45.34;70561.59;5014869;28;51307;-81
2023/05/05 16:12:44;;;;;;;;;1.00;0.00;;;;;23.11;45.40;70192.28;5017123;28;45493;-82
2023/05/05 16:15:10;;;;;;;;;0.00;0.00;;;;;23.10;45.87;69842.41;5016409;28;45529;-81
2023/05/05 16:17:35;;;;;;;;;0.00;0.00;;;;;23.03;46.29;69507.56;5016478;28;46333;-81
2023/05/05 16:20:00;;;;;;;;;0.00;0.00;;;;;22.87;46.72;69284.66;5015114;28;45527;-82
2023/05/05 16:22:26;;;;;;;;;0.00;0.00;;;;;22.92;47.22;69198.31;5016675;28;45839;-82
2023/05/05 16:24:51;;;;;;;;;1.00;0.00;;;;;22.85;47.75;68742.97;5017082;28;45443;-81
2023/05/05 16:27:16;;;;;;;;;0.00;0.00;;;;;22.83;48.05;67942.00;5016583;28;47082;-80
2023/05/05 16:29:42;;;;;;;;;0.00;0.00;;;;;22.79;48.62;67487.19;5014575;28;51120;-81
2023/05/05 16:32:07;;;;;;;;;0.00;0.00;;;;;22.60;48.08;67070.22;5012465;28;45528;-80